sensor_id;sensor_type;location;lat;lon;timestamp;P1;durP1;ratioP1;P2;durP2;ratioP2
20417;SDS011;10368;51.436;6.774;2023-04-25T00:00:16;10.70;;;4.83;;
20417;SDS011;10368;51.436;6.774;2023-04-25T00:02:45;16.17;;;6.17;;
20417;SDS011;10368;51.436;6.774;2023-04-25T00:05:14;9.40;;;4.53;;
20417;SDS011;10368;51.436;6.774;2023-04-25T00:07:42;11.20;;;5.53;;
20417;SDS011;10368;51.436;6.774;2023-04-25T00:10:09;13.37;;;4.80;;
20417;SDS011;10368;51.436;6.774;2023-04-25T00:12:37;15.37;;;4.90;;
20417;SDS011;10368;51.436;6.774;2023-04-25T00:15:05;11.43;;;4.47;;
20417;SDS011;10368;51.436;6.774;2023-04-25T00:17:32;16.17;;;5.37;;
20417;SDS011;10368;51.436;6.774;2023-04-25T00:20:01;17.13;;;6.00;;
20417;SDS011;10368;51.436;6.774;2023-04-25T00:22:31;10.77;;;4.87;;
20417;SDS011;10368;51.436;6.774;2023-04-25T00:24:58;12.03;;;4.60;;
20417;SDS011;10368;51.436;6.774;2023-04-25T00:27:26;11.37;;;5.60;;
20417;SDS011;10368;51.436;6.774;2023-04-25T00:29:53;19.40;;;5.93;;
20417;SDS011;10368;51.436;6.774;2023-04-25T00:32:20;12.17;;;5.13;;
20417;SDS011;10368;51.436;6.774;2023-04-25T00:34:50;19.20;;;4.83;;
20417;SDS011;10368;51.436;6.774;2023-04-25T00:37:17;16.40;;;6.37;;
20417;SDS011;10368;51.436;6.774;2023-04-25T00:39:45;10.40;;;5.27;;
20417;SDS011;10368;51.436;6.774;2023-04-25T00:42:13;15.20;;;5.80;;
20417;SDS011;10368;51.436;6.774;2023-04-25T00:44:40;16.50;;;5.07;;
20417;SDS011;10368;51.436;6.774;2023-04-25T00:47:07;13.97;;;6.30;;
20417;SDS011;10368;51.436;6.774;2023-04-25T00:49:35;15.73;;;5.63;;
20417;SDS011;10368;51.436;6.774;2023-04-25T00:52:02;12.57;;;5.90;;
20417;SDS011;10368;51.436;6.774;2023-04-25T00:54:29;7.63;;;5.20;;
20417;SDS011;10368;51.436;6.774;2023-04-25T00:56:57;16.97;;;5.87;;
20417;SDS011;10368;51.436;6.774;2023-04-25T00:59:24;10.40;;;5.70;;
20417;SDS011;10368;51.436;6.774;2023-04-25T01:01:53;15.70;;;5.27;;
20417;SDS011;10368;51.436;6.774;2023-04-25T01:04:21;14.83;;;5.23;;
20417;SDS011;10368;51.436;6.774;2023-04-25T01:06:48;12.63;;;6.07;;
20417;SDS011;10368;51.436;6.774;2023-04-25T01:09:16;10.17;;;4.93;;
20417;SDS011;10368;51.436;6.774;2023-04-25T01:11:45;15.97;;;6.80;;
20417;SDS011;10368;51.436;6.774;2023-04-25T01:14:12;14.87;;;6.40;;
20417;SDS011;10368;51.436;6.774;2023-04-25T01:16:39;10.60;;;5.63;;
20417;SDS011;10368;51.436;6.774;2023-04-25T01:19:08;10.57;;;4.93;;
20417;SDS011;10368;51.436;6.774;2023-04-25T01:21:39;10.13;;;6.10;;
20417;SDS011;10368;51.436;6.774;2023-04-25T01:24:06;13.23;;;6.00;;
20417;SDS011;10368;51.436;6.774;2023-04-25T01:26:34;20.10;;;6.57;;
20417;SDS011;10368;51.436;6.774;2023-04-25T01:29:01;16.27;;;5.27;;
20417;SDS011;10368;51.436;6.774;2023-04-25T01:31:30;14.43;;;6.37;;
20417;SDS011;10368;51.436;6.774;2023-04-25T01:33:58;12.87;;;6.10;;
20417;SDS011;10368;51.436;6.774;2023-04-25T01:36:25;9.40;;;5.57;;
20417;SDS011;10368;51.436;6.774;2023-04-25T01:38:53;8.93;;;5.43;;
20417;SDS011;10368;51.436;6.774;2023-04-25T01:41:21;14.57;;;5.03;;
20417;SDS011;10368;51.436;6.774;2023-04-25T01:43:49;10.13;;;5.00;;
20417;SDS011;10368;51.436;6.774;2023-04-25T01:46:17;12.07;;;5.60;;
20417;SDS011;10368;51.436;6.774;2023-04-25T01:48:44;10.90;;;5.87;;
20417;SDS011;10368;51.436;6.774;2023-04-25T01:51:12;23.30;;;6.57;;
20417;SDS011;10368;51.436;6.774;2023-04-25T01:53:39;12.33;;;6.03;;
20417;SDS011;10368;51.436;6.774;2023-04-25T01:56:06;7.37;;;4.80;;
20417;SDS011;10368;51.436;6.774;2023-04-25T01:58:33;9.30;;;5.80;;
20417;SDS011;10368;51.436;6.774;2023-04-25T02:01:00;9.87;;;5.40;;
20417;SDS011;10368;51.436;6.774;2023-04-25T02:03:29;12.33;;;5.80;;
20417;SDS011;10368;51.436;6.774;2023-04-25T02:05:56;13.20;;;5.40;;
20417;SDS011;10368;51.436;6.774;2023-04-25T02:08:23;11.90;;;5.93;;
20417;SDS011;10368;51.436;6.774;2023-04-25T02:10:52;7.93;;;5.10;;
20417;SDS011;10368;51.436;6.774;2023-04-25T02:13:19;11.13;;;5.77;;
20417;SDS011;10368;51.436;6.774;2023-04-25T02:15:46;10.17;;;5.63;;
20417;SDS011;10368;51.436;6.774;2023-04-25T02:18:13;10.37;;;5.57;;
20417;SDS011;10368;51.436;6.774;2023-04-25T02:20:42;12.60;;;6.20;;
20417;SDS011;10368;51.436;6.774;2023-04-25T02:23:10;9.50;;;5.70;;
20417;SDS011;10368;51.436;6.774;2023-04-25T02:25:37;11.87;;;5.40;;
20417;SDS011;10368;51.436;6.774;2023-04-25T02:28:04;12.23;;;5.33;;
20417;SDS011;10368;51.436;6.774;2023-04-25T02:30:31;10.90;;;4.80;;
20417;SDS011;10368;51.436;6.774;2023-04-25T02:32:59;13.80;;;6.90;;
20417;SDS011;10368;51.436;6.774;2023-04-25T02:35:26;10.43;;;5.33;;
20417;SDS011;10368;51.436;6.774;2023-04-25T02:37:53;8.60;;;5.50;;
20417;SDS011;10368;51.436;6.774;2023-04-25T02:40:20;11.80;;;5.97;;
20417;SDS011;10368;51.436;6.774;2023-04-25T02:42:48;13.57;;;6.00;;
20417;SDS011;10368;51.436;6.774;2023-04-25T02:45:15;17.50;;;6.17;;
20417;SDS011;10368;51.436;6.774;2023-04-25T02:47:42;14.03;;;5.80;;
20417;SDS011;10368;51.436;6.774;2023-04-25T02:50:10;10.40;;;4.70;;
20417;SDS011;10368;51.436;6.774;2023-04-25T02:52:37;14.63;;;5.60;;
20417;SDS011;10368;51.436;6.774;2023-04-25T02:55:04;14.83;;;5.80;;
20417;SDS011;10368;51.436;6.774;2023-04-25T02:57:32;16.27;;;6.13;;
20417;SDS011;10368;51.436;6.774;2023-04-25T02:59:59;15.57;;;5.43;;
20417;SDS011;10368;51.436;6.774;2023-04-25T03:02:26;12.17;;;4.90;;
20417;SDS011;10368;51.436;6.774;2023-04-25T03:04:53;13.93;;;5.43;;
20417;SDS011;10368;51.436;6.774;2023-04-25T03:07:20;11.27;;;4.97;;
20417;SDS011;10368;51.436;6.774;2023-04-25T03:09:48;13.03;;;6.40;;
20417;SDS011;10368;51.436;6.774;2023-04-25T03:12:15;8.93;;;4.77;;
20417;SDS011;10368;51.436;6.774;2023-04-25T03:14:42;10.60;;;5.80;;
20417;SDS011;10368;51.436;6.774;2023-04-25T03:17:09;14.77;;;5.47;;
20417;SDS011;10368;51.436;6.774;2023-04-25T03:19:36;11.93;;;5.20;;
20417;SDS011;10368;51.436;6.774;2023-04-25T03:22:04;12.93;;;5.40;;
20417;SDS011;10368;51.436;6.774;2023-04-25T03:24:31;9.83;;;5.10;;
20417;SDS011;10368;51.436;6.774;2023-04-25T03:26:58;22.53;;;5.93;;
20417;SDS011;10368;51.436;6.774;2023-04-25T03:29:25;11.53;;;5.67;;
20417;SDS011;10368;51.436;6.774;2023-04-25T03:31:53;17.23;;;5.80;;
20417;SDS011;10368;51.436;6.774;2023-04-25T03:34:20;14.83;;;5.50;;
20417;SDS011;10368;51.436;6.774;2023-04-25T03:36:48;12.47;;;5.30;;
20417;SDS011;10368;51.436;6.774;2023-04-25T03:39:15;12.83;;;5.60;;
20417;SDS011;10368;51.436;6.774;2023-04-25T03:41:42;14.13;;;5.10;;
20417;SDS011;10368;51.436;6.774;2023-04-25T03:44:09;12.63;;;5.27;;
20417;SDS011;10368;51.436;6.774;2023-04-25T03:46:36;11.60;;;4.97;;
20417;SDS011;10368;51.436;6.774;2023-04-25T03:49:03;11.00;;;5.20;;
20417;SDS011;10368;51.436;6.774;2023-04-25T03:51:31;21.87;;;5.73;;
20417;SDS011;10368;51.436;6.774;2023-04-25T03:53:58;19.03;;;5.17;;
20417;SDS011;10368;51.436;6.774;2023-04-25T03:56:25;11.53;;;5.43;;
20417;SDS011;10368;51.436;6.774;2023-04-25T03:58:52;17.53;;;5.93;;
20417;SDS011;10368;51.436;6.774;2023-04-25T04:01:19;11.57;;;5.27;;
20417;SDS011;10368;51.436;6.774;2023-04-25T04:03:46;14.47;;;4.90;;
20417;SDS011;10368;51.436;6.774;2023-04-25T04:06:14;16.37;;;6.13;;
20417;SDS011;10368;51.436;6.774;2023-04-25T04:08:41;16.47;;;5.07;;
20417;SDS011;10368;51.436;6.774;2023-04-25T04:11:08;15.97;;;5.60;;
20417;SDS011;10368;51.436;6.774;2023-04-25T04:13:36;14.97;;;5.50;;
20417;SDS011;10368;51.436;6.774;2023-04-25T04:16:04;16.23;;;5.50;;
20417;SDS011;10368;51.436;6.774;2023-04-25T04:18:31;15.33;;;5.37;;
20417;SDS011;10368;51.436;6.774;2023-04-25T04:20:59;14.47;;;5.57;;
20417;SDS011;10368;51.436;6.774;2023-04-25T04:23:26;12.27;;;5.00;;
20417;SDS011;10368;51.436;6.774;2023-04-25T04:25:54;11.10;;;4.70;;
20417;SDS011;10368;51.436;6.774;2023-04-25T04:28:22;14.57;;;5.90;;
20417;SDS011;10368;51.436;6.774;2023-04-25T04:30:49;15.53;;;5.57;;
20417;SDS011;10368;51.436;6.774;2023-04-25T04:33:18;15.07;;;5.93;;
20417;SDS011;10368;51.436;6.774;2023-04-25T04:35:45;10.73;;;5.37;;
20417;SDS011;10368;51.436;6.774;2023-04-25T04:38:13;17.80;;;6.33;;
20417;SDS011;10368;51.436;6.774;2023-04-25T04:40:41;15.07;;;6.00;;
20417;SDS011;10368;51.436;6.774;2023-04-25T04:43:09;15.10;;;5.23;;
20417;SDS011;10368;51.436;6.774;2023-04-25T04:45:36;20.07;;;5.70;;
20417;SDS011;10368;51.436;6.774;2023-04-25T04:48:06;9.00;;;5.37;;
20417;SDS011;10368;51.436;6.774;2023-04-25T04:50:35;19.30;;;6.73;;
20417;SDS011;10368;51.436;6.774;2023-04-25T04:53:02;17.27;;;6.13;;
20417;SDS011;10368;51.436;6.774;2023-04-25T04:55:29;22.90;;;6.33;;
20417;SDS011;10368;51.436;6.774;2023-04-25T04:57:56;18.67;;;6.23;;
20417;SDS011;10368;51.436;6.774;2023-04-25T05:00:23;13.67;;;5.33;;
20417;SDS011;10368;51.436;6.774;2023-04-25T05:02:53;11.93;;;5.90;;
20417;SDS011;10368;51.436;6.774;2023-04-25T05:05:21;9.37;;;5.80;;
20417;SDS011;10368;51.436;6.774;2023-04-25T05:07:48;12.60;;;5.77;;
20417;SDS011;10368;51.436;6.774;2023-04-25T05:10:16;20.27;;;6.60;;
20417;SDS011;10368;51.436;6.774;2023-04-25T05:12:43;22.23;;;6.53;;
20417;SDS011;10368;51.436;6.774;2023-04-25T05:15:11;13.83;;;5.57;;
20417;SDS011;10368;51.436;6.774;2023-04-25T05:17:38;15.13;;;6.33;;
20417;SDS011;10368;51.436;6.774;2023-04-25T05:20:06;27.63;;;7.97;;
20417;SDS011;10368;51.436;6.774;2023-04-25T05:22:35;14.30;;;5.97;;
20417;SDS011;10368;51.436;6.774;2023-04-25T05:25:02;19.40;;;8.17;;
20417;SDS011;10368;51.436;6.774;2023-04-25T05:27:29;14.27;;;5.80;;
20417;SDS011;10368;51.436;6.774;2023-04-25T05:29:56;14.20;;;6.93;;
20417;SDS011;10368;51.436;6.774;2023-04-25T05:32:23;15.77;;;5.90;;
20417;SDS011;10368;51.436;6.774;2023-04-25T05:34:51;15.70;;;5.63;;
20417;SDS011;10368;51.436;6.774;2023-04-25T05:37:18;20.17;;;5.80;;
20417;SDS011;10368;51.436;6.774;2023-04-25T05:39:45;14.70;;;6.43;;
20417;SDS011;10368;51.436;6.774;2023-04-25T05:42:13;11.77;;;5.63;;
20417;SDS011;10368;51.436;6.774;2023-04-25T05:44:40;17.17;;;6.20;;
20417;SDS011;10368;51.436;6.774;2023-04-25T05:47:07;13.20;;;7.03;;
20417;SDS011;10368;51.436;6.774;2023-04-25T05:49:34;13.53;;;7.03;;
20417;SDS011;10368;51.436;6.774;2023-04-25T05:52:01;15.97;;;6.00;;
20417;SDS011;10368;51.436;6.774;2023-04-25T05:54:29;12.70;;;5.07;;
20417;SDS011;10368;51.436;6.774;2023-04-25T05:56:56;12.77;;;5.03;;
20417;SDS011;10368;51.436;6.774;2023-04-25T05:59:23;12.20;;;5.43;;
20417;SDS011;10368;51.436;6.774;2023-04-25T06:01:51;15.37;;;4.77;;
20417;SDS011;10368;51.436;6.774;2023-04-25T06:04:18;16.40;;;5.47;;
20417;SDS011;10368;51.436;6.774;2023-04-25T06:06:46;10.07;;;4.80;;
20417;SDS011;10368;51.436;6.774;2023-04-25T06:09:13;12.17;;;4.67;;
20417;SDS011;10368;51.436;6.774;2023-04-25T06:11:40;12.37;;;4.43;;
20417;SDS011;10368;51.436;6.774;2023-04-25T06:14:07;13.27;;;5.07;;
20417;SDS011;10368;51.436;6.774;2023-04-25T06:16:35;14.60;;;5.73;;
20417;SDS011;10368;51.436;6.774;2023-04-25T06:19:02;13.77;;;4.53;;
20417;SDS011;10368;51.436;6.774;2023-04-25T06:21:29;10.57;;;5.23;;
20417;SDS011;10368;51.436;6.774;2023-04-25T06:23:57;16.97;;;6.30;;
20417;SDS011;10368;51.436;6.774;2023-04-25T06:26:24;12.90;;;5.57;;
20417;SDS011;10368;51.436;6.774;2023-04-25T06:28:51;12.13;;;5.57;;
20417;SDS011;10368;51.436;6.774;2023-04-25T06:31:19;15.10;;;5.97;;
20417;SDS011;10368;51.436;6.774;2023-04-25T06:33:46;12.17;;;5.03;;
20417;SDS011;10368;51.436;6.774;2023-04-25T06:36:21;16.20;;;5.33;;
20417;SDS011;10368;51.436;6.774;2023-04-25T06:38:52;15.00;;;5.20;;
20417;SDS011;10368;51.436;6.774;2023-04-25T06:41:19;11.23;;;5.37;;
20417;SDS011;10368;51.436;6.774;2023-04-25T06:43:46;13.70;;;4.37;;
20417;SDS011;10368;51.436;6.774;2023-04-25T06:46:13;8.57;;;4.40;;
20417;SDS011;10368;51.436;6.774;2023-04-25T06:48:41;16.30;;;5.87;;
20417;SDS011;10368;51.436;6.774;2023-04-25T06:51:08;13.57;;;5.00;;
20417;SDS011;10368;51.436;6.774;2023-04-25T06:53:35;11.20;;;4.67;;
20417;SDS011;10368;51.436;6.774;2023-04-25T06:56:02;13.23;;;5.00;;
20417;SDS011;10368;51.436;6.774;2023-04-25T06:58:29;8.50;;;4.50;;
20417;SDS011;10368;51.436;6.774;2023-04-25T07:00:57;21.87;;;5.07;;
20417;SDS011;10368;51.436;6.774;2023-04-25T07:03:24;9.27;;;4.77;;
20417;SDS011;10368;51.436;6.774;2023-04-25T07:05:51;13.97;;;5.17;;
20417;SDS011;10368;51.436;6.774;2023-04-25T07:08:18;11.27;;;4.63;;
20417;SDS011;10368;51.436;6.774;2023-04-25T07:10:47;17.40;;;4.47;;
20417;SDS011;10368;51.436;6.774;2023-04-25T07:13:15;13.00;;;5.47;;
20417;SDS011;10368;51.436;6.774;2023-04-25T07:15:43;17.03;;;5.33;;
20417;SDS011;10368;51.436;6.774;2023-04-25T07:18:10;11.50;;;4.73;;
20417;SDS011;10368;51.436;6.774;2023-04-25T07:20:37;16.03;;;5.30;;
20417;SDS011;10368;51.436;6.774;2023-04-25T07:23:04;17.17;;;5.33;;
20417;SDS011;10368;51.436;6.774;2023-04-25T07:25:31;19.60;;;6.53;;
20417;SDS011;10368;51.436;6.774;2023-04-25T07:27:59;23.23;;;7.00;;
20417;SDS011;10368;51.436;6.774;2023-04-25T07:30:26;23.63;;;7.17;;
20417;SDS011;10368;51.436;6.774;2023-04-25T07:32:53;13.07;;;6.50;;
20417;SDS011;10368;51.436;6.774;2023-04-25T07:35:21;11.03;;;5.70;;
20417;SDS011;10368;51.436;6.774;2023-04-25T07:37:48;13.40;;;5.20;;
20417;SDS011;10368;51.436;6.774;2023-04-25T07:40:16;15.33;;;4.63;;
20417;SDS011;10368;51.436;6.774;2023-04-25T07:42:43;16.03;;;4.90;;
20417;SDS011;10368;51.436;6.774;2023-04-25T07:45:11;19.00;;;5.60;;
20417;SDS011;10368;51.436;6.774;2023-04-25T07:47:38;7.87;;;3.97;;
20417;SDS011;10368;51.436;6.774;2023-04-25T07:50:05;20.73;;;3.87;;
20417;SDS011;10368;51.436;6.774;2023-04-25T07:52:33;10.00;;;4.27;;
20417;SDS011;10368;51.436;6.774;2023-04-25T07:55:00;8.20;;;4.43;;
20417;SDS011;10368;51.436;6.774;2023-04-25T07:57:27;12.73;;;3.87;;
20417;SDS011;10368;51.436;6.774;2023-04-25T07:59:54;13.63;;;3.50;;
20417;SDS011;10368;51.436;6.774;2023-04-25T08:02:25;10.77;;;3.80;;
20417;SDS011;10368;51.436;6.774;2023-04-25T08:04:54;10.27;;;4.30;;
20417;SDS011;10368;51.436;6.774;2023-04-25T08:07:22;9.20;;;3.73;;
20417;SDS011;10368;51.436;6.774;2023-04-25T08:09:49;11.10;;;4.90;;
20417;SDS011;10368;51.436;6.774;2023-04-25T08:12:16;12.70;;;4.10;;
20417;SDS011;10368;51.436;6.774;2023-04-25T08:14:43;8.83;;;3.23;;
20417;SDS011;10368;51.436;6.774;2023-04-25T08:17:10;11.57;;;3.40;;
20417;SDS011;10368;51.436;6.774;2023-04-25T08:30:11;9.43;;;3.20;;
20417;SDS011;10368;51.436;6.774;2023-04-25T08:36:01;12.50;;;3.10;;
20417;SDS011;10368;51.436;6.774;2023-04-25T08:45:27;7.47;;;2.93;;
20417;SDS011;10368;51.436;6.774;2023-04-25T08:47:54;5.33;;;2.43;;
20417;SDS011;10368;51.436;6.774;2023-04-25T08:50:23;11.27;;;2.80;;
20417;SDS011;10368;51.436;6.774;2023-04-25T08:52:53;5.13;;;2.57;;
20417;SDS011;10368;51.436;6.774;2023-04-25T08:55:21;6.23;;;1.97;;
20417;SDS011;10368;51.436;6.774;2023-04-25T08:57:49;5.97;;;2.07;;
20417;SDS011;10368;51.436;6.774;2023-04-25T09:00:16;7.70;;;2.13;;
20417;SDS011;10368;51.436;6.774;2023-04-25T09:02:44;7.47;;;2.50;;
20417;SDS011;10368;51.436;6.774;2023-04-25T09:05:13;14.20;;;4.33;;
20417;SDS011;10368;51.436;6.774;2023-04-25T09:07:40;5.53;;;2.23;;
20417;SDS011;10368;51.436;6.774;2023-04-25T09:10:08;6.53;;;1.80;;
20417;SDS011;10368;51.436;6.774;2023-04-25T09:12:35;8.57;;;2.20;;
20417;SDS011;10368;51.436;6.774;2023-04-25T09:17:34;5.83;;;2.00;;
20417;SDS011;10368;51.436;6.774;2023-04-25T09:20:05;7.83;;;3.10;;
20417;SDS011;10368;51.436;6.774;2023-04-25T09:22:34;6.33;;;1.87;;
20417;SDS011;10368;51.436;6.774;2023-04-25T09:25:08;11.97;;;2.23;;
20417;SDS011;10368;51.436;6.774;2023-04-25T09:27:35;9.43;;;2.87;;
20417;SDS011;10368;51.436;6.774;2023-04-25T09:30:02;6.43;;;2.23;;
20417;SDS011;10368;51.436;6.774;2023-04-25T09:32:30;4.57;;;1.90;;
20417;SDS011;10368;51.436;6.774;2023-04-25T09:34:57;7.80;;;2.27;;
20417;SDS011;10368;51.436;6.774;2023-04-25T09:37:28;5.47;;;2.00;;
20417;SDS011;10368;51.436;6.774;2023-04-25T09:39:57;5.37;;;2.20;;
20417;SDS011;10368;51.436;6.774;2023-04-25T09:42:31;4.47;;;1.47;;
20417;SDS011;10368;51.436;6.774;2023-04-25T09:45:01;7.97;;;2.50;;
20417;SDS011;10368;51.436;6.774;2023-04-25T09:47:28;6.77;;;1.87;;
20417;SDS011;10368;51.436;6.774;2023-04-25T09:49:55;4.53;;;1.53;;
20417;SDS011;10368;51.436;6.774;2023-04-25T09:52:23;5.10;;;1.97;;
20417;SDS011;10368;51.436;6.774;2023-04-25T09:54:51;3.77;;;1.57;;
20417;SDS011;10368;51.436;6.774;2023-04-25T09:57:19;3.60;;;1.60;;
20417;SDS011;10368;51.436;6.774;2023-04-25T09:59:48;3.20;;;1.50;;
20417;SDS011;10368;51.436;6.774;2023-04-25T10:02:16;7.77;;;1.77;;
20417;SDS011;10368;51.436;6.774;2023-04-25T10:04:46;3.63;;;1.67;;
20417;SDS011;10368;51.436;6.774;2023-04-25T10:07:25;3.73;;;1.47;;
20417;SDS011;10368;51.436;6.774;2023-04-25T10:09:54;6.87;;;2.23;;
20417;SDS011;10368;51.436;6.774;2023-04-25T10:12:33;6.63;;;1.60;;
20417;SDS011;10368;51.436;6.774;2023-04-25T10:15:01;5.10;;;1.57;;
20417;SDS011;10368;51.436;6.774;2023-04-25T10:17:29;4.50;;;2.20;;
20417;SDS011;10368;51.436;6.774;2023-04-25T10:19:56;3.40;;;1.80;;
20417;SDS011;10368;51.436;6.774;2023-04-25T10:24:51;3.63;;;1.43;;
20417;SDS011;10368;51.436;6.774;2023-04-25T10:27:19;4.17;;;1.53;;
20417;SDS011;10368;51.436;6.774;2023-04-25T10:29:46;2.93;;;1.53;;
20417;SDS011;10368;51.436;6.774;2023-04-25T10:32:26;5.87;;;1.47;;
20417;SDS011;10368;51.436;6.774;2023-04-25T10:34:56;3.07;;;1.40;;
20417;SDS011;10368;51.436;6.774;2023-04-25T10:37:23;5.07;;;1.40;;
20417;SDS011;10368;51.436;6.774;2023-04-25T10:39:51;5.13;;;1.40;;
20417;SDS011;10368;51.436;6.774;2023-04-25T10:42:20;6.30;;;1.30;;
20417;SDS011;10368;51.436;6.774;2023-04-25T10:45:00;5.30;;;1.57;;
20417;SDS011;10368;51.436;6.774;2023-04-25T10:47:35;5.07;;;1.70;;
20417;SDS011;10368;51.436;6.774;2023-04-25T10:50:07;3.50;;;1.40;;
20417;SDS011;10368;51.436;6.774;2023-04-25T10:52:35;3.70;;;1.63;;
20417;SDS011;10368;51.436;6.774;2023-04-25T10:55:06;5.10;;;1.77;;
20417;SDS011;10368;51.436;6.774;2023-04-25T11:02:41;3.77;;;1.87;;
20417;SDS011;10368;51.436;6.774;2023-04-25T11:05:09;6.83;;;1.90;;
20417;SDS011;10368;51.436;6.774;2023-04-25T11:07:49;4.63;;;1.57;;
20417;SDS011;10368;51.436;6.774;2023-04-25T11:10:38;3.93;;;1.90;;
20417;SDS011;10368;51.436;6.774;2023-04-25T11:13:06;4.90;;;2.30;;
20417;SDS011;10368;51.436;6.774;2023-04-25T11:15:33;6.33;;;2.53;;
20417;SDS011;10368;51.436;6.774;2023-04-25T11:18:00;5.13;;;2.13;;
20417;SDS011;10368;51.436;6.774;2023-04-25T11:20:27;5.07;;;2.70;;
20417;SDS011;10368;51.436;6.774;2023-04-25T11:22:57;4.57;;;2.63;;
20417;SDS011;10368;51.436;6.774;2023-04-25T11:25:25;6.27;;;3.10;;
20417;SDS011;10368;51.436;6.774;2023-04-25T11:30:20;7.23;;;2.60;;
20417;SDS011;10368;51.436;6.774;2023-04-25T11:32:51;8.47;;;3.43;;
20417;SDS011;10368;51.436;6.774;2023-04-25T11:35:21;7.60;;;3.07;;
20417;SDS011;10368;51.436;6.774;2023-04-25T11:37:49;11.83;;;2.53;;
20417;SDS011;10368;51.436;6.774;2023-04-25T11:40:16;11.83;;;2.50;;
20417;SDS011;10368;51.436;6.774;2023-04-25T11:42:44;6.37;;;2.17;;
20417;SDS011;10368;51.436;6.774;2023-04-25T11:45:13;6.33;;;1.80;;
20417;SDS011;10368;51.436;6.774;2023-04-25T11:47:40;5.57;;;2.50;;
20417;SDS011;10368;51.436;6.774;2023-04-25T11:50:07;6.77;;;2.93;;
20417;SDS011;10368;51.436;6.774;2023-04-25T11:52:46;5.23;;;2.17;;
20417;SDS011;10368;51.436;6.774;2023-04-25T11:55:17;6.37;;;2.37;;
20417;SDS011;10368;51.436;6.774;2023-04-25T11:57:48;5.20;;;2.70;;
20417;SDS011;10368;51.436;6.774;2023-04-25T12:00:19;8.10;;;2.57;;
20417;SDS011;10368;51.436;6.774;2023-04-25T12:02:52;7.70;;;2.27;;
20417;SDS011;10368;51.436;6.774;2023-04-25T12:05:20;3.83;;;2.30;;
20417;SDS011;10368;51.436;6.774;2023-04-25T12:10:42;5.90;;;2.30;;
20417;SDS011;10368;51.436;6.774;2023-04-25T12:13:21;6.07;;;1.70;;
20417;SDS011;10368;51.436;6.774;2023-04-25T12:15:53;5.33;;;2.23;;
20417;SDS011;10368;51.436;6.774;2023-04-25T12:18:25;4.80;;;2.67;;
20417;SDS011;10368;51.436;6.774;2023-04-25T12:20:55;4.80;;;2.40;;
20417;SDS011;10368;51.436;6.774;2023-04-25T12:23:25;6.10;;;2.57;;
20417;SDS011;10368;51.436;6.774;2023-04-25T12:25:53;8.13;;;2.80;;
20417;SDS011;10368;51.436;6.774;2023-04-25T12:28:21;9.93;;;2.53;;
20417;SDS011;10368;51.436;6.774;2023-04-25T12:30:57;6.03;;;3.97;;
20417;SDS011;10368;51.436;6.774;2023-04-25T12:33:25;4.07;;;2.20;;
20417;SDS011;10368;51.436;6.774;2023-04-25T12:35:53;9.57;;;2.50;;
20417;SDS011;10368;51.436;6.774;2023-04-25T12:38:21;5.32;;;1.40;;
20417;SDS011;10368;51.436;6.774;2023-04-25T12:40:48;4.82;;;1.52;;
20417;SDS011;10368;51.436;6.774;2023-04-25T12:43:16;4.95;;;1.67;;
20417;SDS011;10368;51.436;6.774;2023-04-25T12:45:44;4.00;;;1.58;;
20417;SDS011;10368;51.436;6.774;2023-04-25T12:48:11;7.43;;;1.92;;
20417;SDS011;10368;51.436;6.774;2023-04-25T12:50:39;3.03;;;1.30;;
20417;SDS011;10368;51.436;6.774;2023-04-25T12:53:07;2.58;;;1.65;;
20417;SDS011;10368;51.436;6.774;2023-04-25T12:55:34;5.43;;;1.88;;
20417;SDS011;10368;51.436;6.774;2023-04-25T12:58:01;2.38;;;1.40;;
20417;SDS011;10368;51.436;6.774;2023-04-25T13:00:29;2.53;;;1.58;;
20417;SDS011;10368;51.436;6.774;2023-04-25T13:02:57;5.45;;;1.73;;
20417;SDS011;10368;51.436;6.774;2023-04-25T13:05:25;4.07;;;1.80;;
20417;SDS011;10368;51.436;6.774;2023-04-25T13:07:59;5.75;;;2.38;;
20417;SDS011;10368;51.436;6.774;2023-04-25T13:10:26;4.20;;;1.63;;
20417;SDS011;10368;51.436;6.774;2023-04-25T13:12:53;4.68;;;1.77;;
20417;SDS011;10368;51.436;6.774;2023-04-25T13:15:21;5.25;;;1.25;;
20417;SDS011;10368;51.436;6.774;2023-04-25T13:17:48;6.07;;;1.80;;
20417;SDS011;10368;51.436;6.774;2023-04-25T13:20:15;5.20;;;1.80;;
20417;SDS011;10368;51.436;6.774;2023-04-25T13:22:45;10.70;;;2.33;;
20417;SDS011;10368;51.436;6.774;2023-04-25T13:25:12;6.50;;;1.83;;
20417;SDS011;10368;51.436;6.774;2023-04-25T13:27:39;7.93;;;2.07;;
20417;SDS011;10368;51.436;6.774;2023-04-25T13:30:07;8.18;;;1.92;;
20417;SDS011;10368;51.436;6.774;2023-04-25T13:32:35;7.88;;;2.28;;
20417;SDS011;10368;51.436;6.774;2023-04-25T13:35:03;3.88;;;1.65;;
20417;SDS011;10368;51.436;6.774;2023-04-25T13:37:34;6.97;;;1.90;;
20417;SDS011;10368;51.436;6.774;2023-04-25T13:40:02;9.82;;;1.88;;
20417;SDS011;10368;51.436;6.774;2023-04-25T13:42:31;3.17;;;1.50;;
20417;SDS011;10368;51.436;6.774;2023-04-25T13:44:58;4.32;;;1.77;;
20417;SDS011;10368;51.436;6.774;2023-04-25T13:47:26;5.53;;;1.65;;
20417;SDS011;10368;51.436;6.774;2023-04-25T13:49:53;4.38;;;1.63;;
20417;SDS011;10368;51.436;6.774;2023-04-25T13:52:20;4.38;;;1.63;;
20417;SDS011;10368;51.436;6.774;2023-04-25T13:54:48;5.50;;;1.23;;
20417;SDS011;10368;51.436;6.774;2023-04-25T13:57:15;3.20;;;1.67;;
20417;SDS011;10368;51.436;6.774;2023-04-25T13:59:42;4.97;;;1.85;;
20417;SDS011;10368;51.436;6.774;2023-04-25T14:02:09;4.18;;;1.55;;
20417;SDS011;10368;51.436;6.774;2023-04-25T14:04:37;4.55;;;1.55;;
20417;SDS011;10368;51.436;6.774;2023-04-25T14:07:04;2.70;;;1.20;;
20417;SDS011;10368;51.436;6.774;2023-04-25T14:09:31;3.47;;;1.38;;
20417;SDS011;10368;51.436;6.774;2023-04-25T14:11:58;3.58;;;1.73;;
20417;SDS011;10368;51.436;6.774;2023-04-25T14:14:26;4.22;;;1.15;;
20417;SDS011;10368;51.436;6.774;2023-04-25T14:16:54;3.65;;;1.15;;
20417;SDS011;10368;51.436;6.774;2023-04-25T14:19:21;4.45;;;1.10;;
20417;SDS011;10368;51.436;6.774;2023-04-25T14:21:48;3.83;;;1.20;;
20417;SDS011;10368;51.436;6.774;2023-04-25T14:24:15;4.75;;;1.38;;
20417;SDS011;10368;51.436;6.774;2023-04-25T14:26:44;3.60;;;1.30;;
20417;SDS011;10368;51.436;6.774;2023-04-25T14:29:12;2.73;;;1.40;;
20417;SDS011;10368;51.436;6.774;2023-04-25T14:31:39;3.22;;;1.08;;
20417;SDS011;10368;51.436;6.774;2023-04-25T14:34:07;4.23;;;1.47;;
20417;SDS011;10368;51.436;6.774;2023-04-25T14:36:35;2.40;;;1.37;;
20417;SDS011;10368;51.436;6.774;2023-04-25T14:39:03;2.17;;;1.10;;
20417;SDS011;10368;51.436;6.774;2023-04-25T14:41:34;6.07;;;1.30;;
20417;SDS011;10368;51.436;6.774;2023-04-25T14:44:01;4.80;;;1.60;;
20417;SDS011;10368;51.436;6.774;2023-04-25T14:46:29;3.87;;;1.70;;
20417;SDS011;10368;51.436;6.774;2023-04-25T14:48:56;1.60;;;1.30;;
20417;SDS011;10368;51.436;6.774;2023-04-25T14:51:24;2.43;;;1.20;;
20417;SDS011;10368;51.436;6.774;2023-04-25T14:53:53;6.23;;;1.70;;
20417;SDS011;10368;51.436;6.774;2023-04-25T14:56:20;5.57;;;1.83;;
20417;SDS011;10368;51.436;6.774;2023-04-25T14:58:50;4.27;;;1.70;;
20417;SDS011;10368;51.436;6.774;2023-04-25T15:01:17;6.97;;;1.80;;
20417;SDS011;10368;51.436;6.774;2023-04-25T15:03:47;3.30;;;1.50;;
20417;SDS011;10368;51.436;6.774;2023-04-25T15:06:17;5.53;;;1.53;;
20417;SDS011;10368;51.436;6.774;2023-04-25T15:08:45;4.00;;;1.63;;
20417;SDS011;10368;51.436;6.774;2023-04-25T15:11:12;3.95;;;2.25;;
20417;SDS011;10368;51.436;6.774;2023-04-25T15:13:39;7.85;;;2.08;;
20417;SDS011;10368;51.436;6.774;2023-04-25T15:16:06;4.05;;;1.27;;
20417;SDS011;10368;51.436;6.774;2023-04-25T15:18:34;3.22;;;1.60;;
20417;SDS011;10368;51.436;6.774;2023-04-25T15:21:01;5.57;;;1.47;;